Time;durP1;ratioP1;P1;durP2;ratioP2;P2;SDS_P1;SDS_P2;PMS_P1;PMS_P2;Temp;Humidity;BMP_temperature;BMP_pressure;BME280_temperature;BME280_humidity;BME280_pressure;Samples;Min_cycle;Max_cycle;Signal;HPM_P1;HPM_P2
2022/07/23 00:07:02;;;;;;;;;;;;;;;;;;;;;
2022/07/23 00:15:55;;;;;;;;;;;;;;;;;;;;;
2022/07/23 00:17:51;;;;;;;3.65;3.03;;;;;;;;;;5047527;28;20040;-71
2022/07/23 00:20:17;;;;;;;5.30;2.92;;;;;;;;;;5069653;28;20024;-71
2022/07/23 00:22:54;;;;;;;4.90;2.92;;;;;;;;;;5080997;28;20435;-71
2022/07/23 00:25:20;;;;;;;2.83;2.53;;;;;;;;;;5080680;28;20024;-71
2022/07/23 00:27:46;;;;;;;7.25;3.00;;;;;;;;;;5081507;28;20029;-72
2022/07/23 00:30:12;;;;;;;4.47;2.87;;;;;;;;;;5081937;28;20032;-72
2022/07/23 00:32:52;;;;;;;5.20;2.90;;;;;;;;;;5082365;28;20617;-72
2022/07/23 00:35:21;;;;;;;8.40;2.97;;;;;;;;;;5079839;28;20481;-72
2022/07/23 00:37:47;;;;;;;5.25;3.10;;;;;;;;;;5075930;28;20443;-71
2022/07/23 00:40:13;;;;;;;4.47;2.72;;;;;;;;;;5074976;28;20024;-71
2022/07/23 00:42:39;;;;;;;5.43;2.90;;;;;;;;;;5074771;28;20032;-72
2022/07/23 00:45:05;;;;;;;3.63;2.67;;;;;;;;;;5074755;28;20028;-70
2022/07/23 00:47:30;;;;;;;4.10;3.08;;;;;;;;;;5074560;28;20513;-72
2022/07/23 00:49:55;;;;;;;3.00;2.40;;;;;;;;;;5056501;28;20025;-72
2022/07/23 00:52:20;;;;;;;4.63;2.80;;;;;;;;;;5074801;28;20064;-71
2022/07/23 00:54:46;;;;;;;2.80;2.40;;;;;;;;;;5074381;28;20265;-71
2022/07/23 00:57:12;;;;;;;3.63;2.42;;;;;;;;;;5074637;28;20080;-71
2022/07/23 00:59:38;;;;;;;5.35;2.50;;;;;;;;;;5074405;28;20516;-72
2022/07/23 01:02:04;;;;;;;4.65;2.53;;;;;;;;;;5074522;28;20048;-71
2022/07/23 01:04:29;;;;;;;3.00;2.27;;;;;;;;;;5075017;28;20017;-73
2022/07/23 01:06:54;;;;;;;4.53;2.63;;;;;;;;;;5074452;28;20269;-71
2022/07/23 01:09:19;;;;;;;3.17;2.22;;;;;;;;;;5075312;28;20264;-71
2022/07/23 01:11:45;;;;;;;3.33;2.40;;;;;;;;;;5074516;28;20034;-71
2022/07/23 01:14:12;;;;;;;3.25;2.50;;;;;;;;;;5074660;28;20096;-71
2022/07/23 01:16:37;;;;;;;3.22;2.17;;;;;;;;;;5074643;28;20031;-71
2022/07/23 01:19:06;;;;;;;4.57;2.10;;;;;;;;;;5074231;28;20025;-71
2022/07/23 01:21:32;;;;;;;5.40;2.50;;;;;;;;;;5074542;28;20017;-70
2022/07/23 01:23:57;;;;;;;10.80;2.42;;;;;;;;;;5074277;28;20442;-71
2022/07/23 01:26:23;;;;;;;3.60;2.40;;;;;;;;;;5075238;28;20031;-71
2022/07/23 01:28:48;;;;;;;3.60;2.57;;;;;;;;;;5074463;28;20269;-72
2022/07/23 01:31:13;;;;;;;4.03;2.57;;;;;;;;;;5074728;28;20268;-71
2022/07/23 01:33:38;;;;;;;3.93;2.47;;;;;;;;;;5074775;28;20261;-71
2022/07/23 01:36:04;;;;;;;3.10;2.50;;;;;;;;;;5075601;28;20280;-71
2022/07/23 01:38:29;;;;;;;3.10;2.53;;;;;;;;;;5075011;28;20257;-72
2022/07/23 01:40:54;;;;;;;2.80;2.50;;;;;;;;;;5074977;28;20036;-71
2022/07/23 01:43:19;;;;;;;3.30;2.57;;;;;;;;;;5075025;28;20265;-70
2022/07/23 01:45:44;;;;;;;4.43;2.57;;;;;;;;;;5075422;28;20273;-71
2022/07/23 01:48:10;;;;;;;5.97;2.60;;;;;;;;;;5075544;28;20273;-71
2022/07/23 01:50:35;;;;;;;3.95;2.70;;;;;;;;;;5075486;28;20381;-72
2022/07/23 01:53:00;;;;;;;3.50;2.90;;;;;;;;;;5075061;28;20059;-71
2022/07/23 01:55:25;;;;;;;4.55;2.80;;;;;;;;;;5075059;28;20285;-71
2022/07/23 01:57:51;;;;;;;5.07;3.13;;;;;;;;;;5074540;28;20070;-71
2022/07/23 02:00:16;;;;;;;11.15;2.90;;;;;;;;;;5074090;28;20814;-71
2022/07/23 02:02:41;;;;;;;3.57;2.77;;;;;;;;;;5073717;28;20031;-71
2022/07/23 02:05:07;;;;;;;4.68;2.88;;;;;;;;;;5073589;28;20334;-71
2022/07/23 02:07:32;;;;;;;4.65;2.85;;;;;;;;;;5074029;28;20116;-71
2022/07/23 02:09:57;;;;;;;4.70;2.60;;;;;;;;;;5074457;28;20021;-72
2022/07/23 02:12:23;;;;;;;3.70;3.03;;;;;;;;;;5074342;28;20339;-70
2022/07/23 02:14:48;;;;;;;5.83;2.83;;;;;;;;;;5073539;28;20281;-71
2022/07/23 02:17:13;;;;;;;5.78;2.80;;;;;;;;;;5056184;28;20323;-72
2022/07/23 05:38:32;;;;;;;5.68;3.10;;;;;;;;;;5042223;28;20032;-81
2022/07/23 08:08:19;;;;;;;;;;;;;;;;;;5064536;28;20388;-80
2022/07/23 09:00:59;;;;;;;;;;;;;;;;;;;;;
2022/07/23 09:03:59;;;;;;;;;;;;;;;;;;;;;
2022/07/23 09:41:42;;;;;;;;;;;;;;;;;;4924925;29;19918;-80
2022/07/23 09:44:34;;;;;;;;;;;;;;;;;;4903628;29;19926;-79
2022/07/23 10:03:13;;;;;;;;;;;;;;;;;;4913136;29;19919;-79
2022/07/23 10:06:13;;;;;;;;;;;;;;;;;;;;;
2022/07/23 10:09:08;;;;;;;;;;;;;;;;;;4956371;29;19997;-78
2022/07/23 10:17:22;;;;;;;;;;;;;;;;;;5060042;28;20388;-83
2022/07/23 10:19:47;;;;;;;;;;;;;;;;;;5041060;28;19909;-80
2022/07/23 10:22:20;;;;;;;;;;;;;;;;;;5057724;28;19935;-80
2022/07/23 10:24:52;;;;;;;;;;;;;;;;;;5058187;28;19913;-81
2022/07/23 10:27:30;;;;;;;;;;;;;;;;;;5057838;28;19909;-81
2022/07/23 10:30:04;;;;;;;;;;;;;;;;;;5059584;28;19909;-78
2022/07/23 10:32:35;;;;;;;;;;;;;;;;;;5058110;28;20297;-80
2022/07/23 10:35:14;;;;;;;;;;;;;;;;;;5057735;28;19931;-80
2022/07/23 10:37:41;;;;;;;;;;;;;;;;;;5060646;28;19938;-80
2022/07/23 10:40:10;;;;;;;;;;;;;;;;;;5063108;28;19909;-78
2022/07/23 10:42:35;;;;;;;;;;;;;;;;;;5064865;28;19931;-78
2022/07/23 10:45:00;;;;;;;;;;;;;;;;;;5063845;28;19913;-79
2022/07/23 10:47:42;;;;;;;;;;;;;;;;;;5045894;28;19931;-79
2022/07/23 10:53:21;;;;;;;;;;;;;;;;;;5009335;28;19916;-80
2022/07/23 10:55:56;;;;;;;;;;;;;;;;;;5064437;28;19940;-79
2022/07/23 11:01:47;;;;;;;;;;;;;;;;;;5039412;28;20435;-79
2022/07/23 11:04:39;;;;;;;;;;;;;;;;;;5051011;28;19917;-78
2022/07/23 11:07:45;;;;;;;;;;;;;;;;;;5066062;28;19917;-79
2022/07/23 11:10:36;;;;;;;;;;;;;;;;;;5069558;28;19919;-79
2022/07/23 11:13:20;;;;;;;;;;;;;;;;;;5025591;28;19916;-78
2022/07/23 11:16:10;;;;;;;;;;;;;;;;;;5050562;28;19908;-79
2022/07/23 11:18:42;;;;;;;;;;;;;;;;;;5052076;28;19908;-78
2022/07/23 11:21:56;;;;;;;;;;;;;;;;;;5049374;28;19916;-78
2022/07/23 11:25:12;;;;;;;;;;;;;;;;;;;;;
2022/07/23 11:27:57;;;;;;;;;;;;;;;;;;5066430;28;19971;-79
2022/07/23 11:30:28;;;;;;;;;;;;;;;;;;5066161;28;20270;-77
2022/07/23 11:37:04;;;;;;;;;;;;;;;;;;4946750;29;20001;-80
2022/07/23 11:47:08;;;;;;;;;;;;;;;;;;5065444;28;19927;-81
2022/07/23 11:49:34;;;;;;;;;;;;;;;;;;5058724;28;20365;-78
2022/07/23 11:52:28;;;;;;;;;;;;;;;;;;5064523;28;19915;-80
2022/07/23 11:58:34;;;;;;;;;;;;;;;;;;;;;
2022/07/23 12:01:16;;;;;;;;;;;;;;;;;;5006762;28;20000;-81
2022/07/23 12:04:10;;;;;;;;;;;;;;;;;;5006418;28;19941;-79
2022/07/23 12:06:37;;;;;;;;;;;;;;;;;;5006430;28;19909;-80
2022/07/23 12:09:27;;;;;;;;;;;;;;;;;;5005724;28;19914;-80
2022/07/23 12:15:50;;;;;;;;;;;;;;;;;;;;;
2022/07/23 12:18:16;;;;;;;;;;;;;;;;;;4972685;28;20000;-80
2022/07/23 12:20:42;;;;;;;;;;;;;;;;;;5065175;28;19950;-82
2022/07/23 12:23:08;;;;;;;;;;;;;;;;;;5065473;28;19908;-81
2022/07/23 12:25:34;;;;;;;;;;;;;;;;;;5066949;28;19959;-81
2022/07/23 12:28:01;;;;;;;;;;;;;;;;;;5067526;28;19916;-80
2022/07/23 12:30:28;;;;;;;;;;;;;;;;;;5061000;28;19912;-79
2022/07/23 12:32:55;;;;;;;;;;;;;;;;;;5068053;28;19962;-81
2022/07/23 12:35:21;;;;;;;;;;;;;;;;;;5058742;28;19912;-80
2022/07/23 12:37:47;;;;;;;;;;;;;;;;;;5066583;28;19947;-80
2022/07/23 12:40:18;;;;;;;;;;;;;;;;;;5064114;28;19912;-81
2022/07/23 12:42:44;;;;;;;;;;;;;;;;;;5062827;28;20408;-80
2022/07/23 12:45:11;;;;;;;;;;;;;;;;;;5062510;28;19920;-79
2022/07/23 12:47:54;;;;;;;;;;;;;;;;;;5062033;28;19952;-80
2022/07/23 12:50:38;;;;;;;;;;;;;;;;;;5061922;28;19923;-79
2022/07/23 12:53:08;;;;;;;;;;;;;;;;;;5058991;28;19909;-79
2022/07/23 12:55:34;;;;;;;;;;;;;;;;;;5062889;28;19916;-79
2022/07/23 12:58:04;;;;;;;;;;;;;;;;;;5063912;28;19908;-80
2022/07/23 13:00:29;;;;;;;;;;;;;;;;;;5054708;28;19974;-81
2022/07/23 13:02:54;;;;;;;;;;;;;;;;;;5062721;28;20381;-81
2022/07/23 13:05:20;;;;;;;;;;;;;;;;;;5063724;28;19960;-80
2022/07/23 13:07:45;;;;;;;;;;;;;;;;;;5055807;28;19916;-81
2022/07/23 13:10:12;;;;;;;;;;;;;;;;;;5060948;28;19908;-79
2022/07/23 13:12:37;;;;;;;;;;;;;;;;;;5059446;28;19972;-79
2022/07/23 13:15:03;;;;;;;;;;;;;;;;;;5065278;28;19912;-80
2022/07/23 13:17:28;;;;;;;;;;;;;;;;;;5064081;28;19908;-78
2022/07/23 13:19:54;;;;;;;;;;;;;;;;;;5061322;28;20003;-80
2022/07/23 13:22:19;;;;;;;;;;;;;;;;;;5065849;28;19951;-79
2022/07/23 13:24:44;;;;;;;;;;;;;;;;;;5066192;28;19912;-78
2022/07/23 13:27:09;;;;;;;;;;;;;;;;;;5066239;28;19915;-80
2022/07/23 13:29:34;;;;;;;;;;;;;;;;;;5065930;28;19916;-79
2022/07/23 13:32:00;;;;;;;;;;;;;;;;;;5064838;28;19959;-78
2022/07/23 13:34:25;;;;;;;;;;;;;;;;;;5063232;28;19908;-80
2022/07/23 13:36:50;;;;;;;;;;;;;;;;;;5064399;28;19909;-79
2022/07/23 13:39:16;;;;;;;;;;;;;;;;;;5065856;28;20449;-78
2022/07/23 13:41:41;;;;;;;;;;;;;;;;;;5061339;28;19934;-78
2022/07/23 13:44:06;;;;;;;;;;;;;;;;;;5064489;28;19919;-80
2022/07/23 13:46:31;;;;;;;;;;;;;;;;;;5060168;28;19923;-78
2022/07/23 13:48:56;;;;;;;;;;;;;;;;;;5064216;28;19908;-78
2022/07/23 13:51:23;;;;;;;;;;;;;;;;;;5057389;28;19912;-80
2022/07/23 13:53:49;;;;;;;;;;;;;;;;;;5064770;28;19991;-79
2022/07/23 13:56:14;;;;;;;;;;;;;;;;;;5067041;28;19909;-80
2022/07/23 13:58:40;;;;;;;;;;;;;;;;;;5065318;28;20336;-80
2022/07/23 14:01:05;;;;;;;;;;;;;;;;;;5064746;28;20000;-79
2022/07/23 14:03:30;;;;;;;;;;;;;;;;;;5067213;28;19917;-79
2022/07/23 14:05:56;;;;;;;;;;;;;;;;;;5065905;28;19917;-81
2022/07/23 14:08:21;;;;;;;;;;;;;;;;;;5065437;28;19916;-80
2022/07/23 14:10:46;;;;;;;;;;;;;;;;;;5060740;28;19979;-79
2022/07/23 14:13:11;;;;;;;;;;;;;;;;;;5064695;28;19920;-79
2022/07/23 14:15:40;;;;;;;;;;;;;;;;;;5060677;28;19909;-78
2022/07/23 14:18:05;;;;;;;;;;;;;;;;;;5064976;28;19908;-80
2022/07/23 14:20:30;;;;;;;;;;;;;;;;;;5058872;28;19923;-80
2022/07/23 14:22:57;;;;;;;;;;;;;;;;;;5063941;28;20037;-80
2022/07/23 14:25:23;;;;;;;;;;;;;;;;;;5057839;28;19983;-79
2022/07/23 14:27:48;;;;;;;;;;;;;;;;;;5065236;28;19909;-80
2022/07/23 14:30:14;;;;;;;;;;;;;;;;;;5064751;28;19931;-78
2022/07/23 14:32:40;;;;;;;;;;;;;;;;;;5064972;28;19916;-78
2022/07/23 14:35:05;;;;;;;;;;;;;;;;;;5060456;28;19912;-78
2022/07/23 14:37:31;;;;;;;;;;;;;;;;;;5065036;28;19955;-79
2022/07/23 14:39:56;;;;;;;;;;;;;;;;;;5062595;28;19915;-77
2022/07/23 14:42:21;;;;;;;;;;;;;;;;;;5057460;28;20352;-77
2022/07/23 14:44:46;;;;;;;;;;;;;;;;;;5063518;28;19925;-80
2022/07/23 14:47:11;;;;;;;;;;;;;;;;;;5064834;28;20376;-78
2022/07/23 14:49:37;;;;;;;;;;;;;;;;;;5065053;28;19908;-79
2022/07/23 14:52:03;;;;;;;;;;;;;;;;;;5066750;28;19978;-80
2022/07/23 14:54:28;;;;;;;;;;;;;;;;;;5066721;28;19963;-80
2022/07/23 14:56:54;;;;;;;;;;;;;;;;;;5066693;28;20285;-80
2022/07/23 14:59:19;;;;;;;;;;;;;;;;;;5067767;28;19909;-79
2022/07/23 15:01:45;;;;;;;;;;;;;;;;;;5067750;28;19912;-79
2022/07/23 15:04:10;;;;;;;;;;;;;;;;;;5067257;28;19920;-80
2022/07/23 15:06:35;;;;;;;;;;;;;;;;;;5067046;28;19909;-79
2022/07/23 15:09:00;;;;;;;;;;;;;;;;;;5068169;28;19909;-80
2022/07/23 15:11:31;;;;;;;;;;;;;;;;;;5061012;28;19938;-79
2022/07/23 15:13:57;;;;;;;;;;;;;;;;;;5051403;28;19992;-80
2022/07/23 15:16:22;;;;;;;;;;;;;;;;;;5067725;28;19913;-80
2022/07/23 15:18:47;;;;;;;;;;;;;;;;;;5067847;28;20003;-79
2022/07/23 15:21:12;;;;;;;;;;;;;;;;;;5058920;28;19908;-79
2022/07/23 15:23:39;;;;;;;;;;;;;;;;;;5067144;28;19909;-79
2022/07/23 15:26:05;;;;;;;;;;;;;;;;;;5067153;28;19988;-78
2022/07/23 15:28:30;;;;;;;;;;;;;;;;;;5066728;28;19963;-79
2022/07/23 15:30:55;;;;;;;;;;;;;;;;;;5066768;28;19909;-79
2022/07/23 15:33:20;;;;;;;;;;;;;;;;;;5067918;28;19947;-79
2022/07/23 15:35:45;;;;;;;;;;;;;;;;;;5067742;28;19952;-79
2022/07/23 15:38:11;;;;;;;;;;;;;;;;;;5058857;28;19909;-79
2022/07/23 15:40:36;;;;;;;;;;;;;;;;;;5068324;28;19958;-79
2022/07/23 15:43:02;;;;;;;;;;;;;;;;;;5067882;28;20173;-80
2022/07/23 15:45:27;;;;;;;;;;;;;;;;;;5068534;28;19916;-79
2022/07/23 15:47:54;;;;;;;;;;;;;;;;;;5064330;28;19919;-79
2022/07/23 15:50:19;;;;;;;;;;;;;;;;;;5059820;28;19963;-80
2022/07/23 15:52:44;;;;;;;;;;;;;;;;;;5066242;28;19908;-79
2022/07/23 15:55:09;;;;;;;;;;;;;;;;;;5066911;28;19915;-78
2022/07/23 15:57:34;;;;;;;;;;;;;;;;;;5067825;28;19909;-79
2022/07/23 16:00:00;;;;;;;;;;;;;;;;;;5067732;28;19909;-80
2022/07/23 16:02:25;;;;;;;;;;;;;;;;;;5066821;28;19915;-79
2022/07/23 16:04:51;;;;;;;;;;;;;;;;;;5067590;28;19955;-78
2022/07/23 16:07:17;;;;;;;;;;;;;;;;;;5068260;28;20305;-81
2022/07/23 16:09:43;;;;;;;;;;;;;;;;;;5067144;28;19968;-79
2022/07/23 16:12:08;;;;;;;;;;;;;;;;;;5068416;28;19948;-80
2022/07/23 16:14:34;;;;;;;;;;;;;;;;;;5068892;28;20003;-81
2022/07/23 16:16:59;;;;;;;;;;;;;;;;;;5066216;28;19949;-80
2022/07/23 16:19:24;;;;;;;;;;;;;;;;;;5067869;28;19908;-78
2022/07/23 16:21:52;;;;;;;;;;;;;;;;;;5063183;28;19908;-79
2022/07/23 16:24:17;;;;;;;;;;;;;;;;;;5055952;28;19913;-80
2022/07/23 16:26:43;;;;;;;;;;;;;;;;;;5066359;28;19969;-80
2022/07/23 16:29:08;;;;;;;;;;;;;;;;;;5067883;28;19932;-78
2022/07/23 16:31:33;;;;;;;;;;;;;;;;;;5061565;28;19930;-78
2022/07/23 16:33:58;;;;;;;;;;;;;;;;;;5063908;28;19913;-78
2022/07/23 16:36:24;;;;;;;;;;;;;;;;;;5057916;28;19908;-78
2022/07/23 16:38:55;;;;;;;;;;;;;;;;;;5065143;28;20003;-78
2022/07/23 16:41:20;;;;;;;;;;;;;;;;;;5068881;28;19915;-79
2022/07/23 16:43:46;;;;;;;;;;;;;;;;;;5070895;28;19909;-79
2022/07/23 16:46:12;;;;;;;;;;;;;;;;;;5061988;28;19980;-80
2022/07/23 16:48:49;;;;;;;;;;;;;;;;;;5069542;28;19980;-80
2022/07/23 16:51:15;;;;;;;;;;;;;;;;;;5070881;28;19915;-80
2022/07/23 16:53:42;;;;;;;;;;;;;;;;;;5070842;28;19936;-79
2022/07/23 16:56:19;;;;;;;;;;;;;;;;;;;;;
2022/07/23 16:59:02;;;;;;;;;;;;;;;;;;5070297;28;19936;-79
2022/07/23 17:01:30;;;;;;;;;;;;;;;;;;5071154;28;19980;-80
2022/07/23 17:04:13;;;;;;;;;;;;;;;;;;5066967;28;20289;-78
2022/07/23 17:06:39;;;;;;;;;;;;;;;;;;5062598;28;19908;-78
2022/07/23 17:09:07;;;;;;;;;;;;;;;;;;5065782;28;19916;-77
2022/07/23 17:11:33;;;;;;;;;;;;;;;;;;5068484;28;19912;-80
2022/07/23 17:13:58;;;;;;;;;;;;;;;;;;5068849;28;20274;-77
2022/07/23 17:16:23;;;;;;;;;;;;;;;;;;5070068;28;19916;-79
2022/07/23 17:18:49;;;;;;;;;;;;;;;;;;5068517;28;19916;-79
2022/07/23 17:21:32;;;;;;;;;;;;;;;;;;5102474;27;19940;-77
2022/07/23 17:23:57;;;;;;;;;;;;;;;;;;5103199;28;19923;-79
2022/07/23 17:26:22;;;;;;;;;;;;;;;;;;5104034;28;19987;-78
2022/07/23 17:28:50;;;;;;;;;;;;;;;;;;5102755;28;19912;-79
2022/07/23 17:31:15;;;;;;;;;;;;;;;;;;5103733;28;19912;-79
2022/07/23 17:33:41;;;;;;;;;;;;;;;;;;5100352;28;20443;-78
2022/07/23 17:36:09;;;;;;;;;;;;;;;;;;5099565;28;19919;-78
2022/07/23 17:38:34;;;;;;;;;;;;;;;;;;5099061;28;19938;-78
2022/07/23 17:41:02;;;;;;;;;;;;;;;;;;5097073;28;19917;-78
2022/07/23 17:43:30;;;;;;;;;;;;;;;;;;5098602;28;19920;-78
2022/07/23 17:45:57;;;;;;;;;;;;;;;;;;5098100;28;19916;-78
2022/07/23 17:48:22;;;;;;;;;;;;;;;;;;5096057;28;19920;-77
2022/07/23 17:50:48;;;;;;;;;;;;;;;;;;5096819;28;19913;-78
2022/07/23 17:53:13;;;;;;;;;;;;;;;;;;5097441;28;19916;-77
2022/07/23 17:55:38;;;;;;;;;;;;;;;;;;5097928;28;19958;-78
2022/07/23 17:58:12;;;;;;;;;;;;;;;;;;5096226;28;19913;-79
2022/07/23 18:00:38;;;;;;;;;;;;;;;;;;5097189;28;20342;-77
2022/07/23 18:03:03;;;;;;;;;;;;;;;;;;5098375;28;20015;-78
2022/07/23 18:05:30;;;;;;;;;;;;;;;;;;5099277;28;19913;-80
2022/07/23 18:07:55;;;;;;;;;;;;;;;;;;5100081;28;19919;-79
2022/07/23 18:10:20;;;;;;;;;;;;;;;;;;5098141;28;19944;-80
2022/07/23 18:12:46;;;;;;;;;;;;;;;;;;5098517;28;19961;-79
2022/07/23 18:15:11;;;;;;;;;;;;;;;;;;5099646;28;19920;-79
2022/07/23 18:17:40;;;;;;;;;;;;;;;;;;5098783;28;19948;-78
2022/07/23 18:20:06;;;;;;;;;;;;;;;;;;5108184;28;19924;-79
2022/07/23 18:22:34;;;;;;;;;;;;;;;;;;5119761;28;19916;-79
2022/07/23 18:25:00;;;;;;;;;;;;;;;;;;5118978;28;19975;-79
2022/07/23 18:27:25;;;;;;;;;;;;;;;;;;5119996;28;19912;-78
2022/07/23 18:29:51;;;;;;;;;;;;;;;;;;5120081;28;19919;-78
2022/07/23 18:32:16;;;;;;;;;;;;;;;;;;5108900;28;19971;-80
2022/07/23 18:34:44;;;;;;;;;;;;;;;;;;5105021;28;19995;-78
2022/07/23 18:37:09;;;;;;;;;;;;;;;;;;5103815;28;20365;-79
2022/07/23 18:39:40;;;;;;;;;;;;;;;;;;5105346;28;19916;-78
2022/07/23 18:42:08;;;;;;;;;;;;;;;;;;5105955;28;19912;-77
2022/07/23 18:44:33;;;;;;;;;;;;;;;;;;5105154;28;19984;-78
2022/07/23 18:46:59;;;;;;;;;;;;;;;;;;5106142;28;19959;-77
2022/07/23 18:49:26;;;;;;;;;;;;;;;;;;5105075;28;19919;-79
2022/07/23 18:51:54;;;;;;;;;;;;;;;;;;5105928;28;19912;-79
2022/07/23 18:54:19;;;;;;;;;;;;;;;;;;5105492;28;19950;-78
2022/07/23 18:56:44;;;;;;;;;;;;;;;;;;5105023;28;19912;-78
2022/07/23 18:59:10;;;;;;;;;;;;;;;;;;5104991;28;19923;-78
2022/07/23 19:01:44;;;;;;;;;;;;;;;;;;5106753;28;20376;-78
2022/07/23 19:04:10;;;;;;;;;;;;;;;;;;5105932;28;19918;-79
2022/07/23 19:06:35;;;;;;;;;;;;;;;;;;5105719;28;20002;-79
2022/07/23 19:09:00;;;;;;;;;;;;;;;;;;5107192;28;19912;-79
2022/07/23 19:11:28;;;;;;;;;;;;;;;;;;5107333;28;19912;-80
2022/07/23 19:13:56;;;;;;;;;;;;;;;;;;5107386;28;19916;-80
2022/07/23 19:16:28;;;;;;;;;;;;;;;;;;5106055;28;20387;-77
2022/07/23 19:18:55;;;;;;;;;;;;;;;;;;5105995;28;20007;-80
2022/07/23 19:21:25;;;;;;;;;;;;;;;;;;5105545;28;20374;-78
2022/07/23 19:23:55;;;;;;;;;;;;;;;;;;5105508;28;20334;-80
2022/07/23 19:26:21;;;;;;;;;;;;;;;;;;5106231;28;19912;-79
2022/07/23 19:28:51;;;;;;;;;;;;;;;;;;5106851;28;19912;-79
2022/07/23 19:31:19;;;;;;;;;;;;;;;;;;5107344;28;19933;-80
2022/07/23 19:33:45;;;;;;;;;;;;;;;;;;5108939;28;19912;-78
2022/07/23 19:36:11;;;;;;;;;;;;;;;;;;5106767;28;19923;-79
2022/07/23 19:38:36;;;;;;;;;;;;;;;;;;5105906;28;19934;-78
2022/07/23 19:41:01;;;;;;;;;;;;;;;;;;5105107;28;19916;-79
2022/07/23 19:43:26;;;;;;;;;;;;;;;;;;5104989;28;19912;-80
2022/07/23 19:45:52;;;;;;;;;;;;;;;;;;5105720;28;19912;-79
2022/07/23 19:48:19;;;;;;;;;;;;;;;;;;5106531;28;19977;-80
2022/07/23 19:50:53;;;;;;;;;;;;;;;;;;5104807;28;20002;-79
2022/07/23 19:53:18;;;;;;;;;;;;;;;;;;5104756;28;19912;-79
2022/07/23 19:55:44;;;;;;;;;;;;;;;;;;5104803;28;19912;-78
2022/07/23 19:58:19;;;;;;;;;;;;;;;;;;;;;
2022/07/23 20:00:47;;;;;;;;;;;;;;;;;;5106924;28;19980;-79
2022/07/23 20:03:18;;;;;;;;;;;;;;;;;;5105045;28;20007;-79
2022/07/23 20:05:43;;;;;;;;;;;;;;;;;;5099560;28;19965;-84
2022/07/23 20:08:09;;;;;;;;;;;;;;;;;;5101311;28;19912;-83
2022/07/23 20:10:37;;;;;;;;;;;;;;;;;;5105146;28;19934;-79
2022/07/23 20:13:03;;;;;;;;;;;;;;;;;;5105597;28;19951;-80
2022/07/23 20:19:48;;;;;;;;;;;;;;;;;;5025003;28;19920;-78
2022/07/23 20:22:27;;;;;;;;;;;;;;;;;;4978848;28;20353;-79
2022/07/23 20:28:29;;;;;;;;;;;;;;;;;;;;;
2022/07/23 20:30:58;;;;;;;;;;;;;;;;;;5101344;28;20007;-79
2022/07/23 20:33:32;;;;;;;;;;;;;;;;;;5101489;28;20015;-80
2022/07/23 20:36:15;;;;;;;;;;;;;;;;;;;;;
2022/07/23 20:38:54;;;;;;;;;;;;;;;;;;;;;
2022/07/23 20:41:30;;;;;;;;;;;;;;;;;;5106909;28;20428;-80
2022/07/23 20:47:13;;;;;;;;;;;;;;;;;;5108759;28;19934;-79
2022/07/23 20:49:46;;;;;;;;;;;;;;;;;;5106166;28;19912;-80
2022/07/23 20:52:32;;;;;;;;;;;;;;;;;;;;;
2022/07/23 20:55:10;;;;;;;;;;;;;;;;;;;;;
2022/07/23 20:57:47;;;;;;;;;;;;;;;;;;5105061;28;20027;-80
2022/07/23 21:03:12;;;;;;;;;;;;;;;;;;4201675;26;19959;-80
2022/07/23 21:08:46;;;;;;;;;;;;;;;;;;5065595;28;19919;-81
2022/07/23 21:14:44;;;;;;;;;;;;;;;;;;;;;
2022/07/23 21:17:10;;;;;;;;;;;;;;;;;;5064245;28;19991;-79
2022/07/23 21:19:36;;;;;;;;;;;;;;;;;;5078473;28;19955;-80
2022/07/23 21:22:01;;;;;;;;;;;;;;;;;;5078917;28;19913;-81
2022/07/23 21:24:26;;;;;;;;;;;;;;;;;;5066057;28;19912;-83
2022/07/23 21:26:51;;;;;;;;;;;;;;;;;;5082598;28;19968;-82
2022/07/23 21:29:16;;;;;;;;;;;;;;;;;;5065955;28;19913;-81
2022/07/23 21:31:42;;;;;;;;;;;;;;;;;;5065280;28;19920;-80
2022/07/23 21:34:07;;;;;;;;;;;;;;;;;;5067235;28;19936;-80
2022/07/23 21:36:32;;;;;;;;;;;;;;;;;;5066430;28;20370;-81
2022/07/23 21:38:57;;;;;;;;;;;;;;;;;;5066942;28;19912;-81
2022/07/23 21:41:28;;;;;;;;;;;;;;;;;;5064256;28;19924;-81
2022/07/23 21:43:56;;;;;;;;;;;;;;;;;;5063945;28;19935;-82
2022/07/23 21:46:21;;;;;;;;;;;;;;;;;;5065275;28;19912;-81
2022/07/23 21:48:46;;;;;;;;;;;;;;;;;;5063418;28;19957;-80
2022/07/23 21:51:11;;;;;;;;;;;;;;;;;;5063493;28;19913;-79
2022/07/23 21:53:36;;;;;;;;;;;;;;;;;;5065418;28;19912;-82
2022/07/23 21:56:02;;;;;;;;;;;;;;;;;;5066237;28;19913;-82
2022/07/23 21:58:27;;;;;;;;;;;;;;;;;;5065530;28;19913;-81
2022/07/23 22:00:55;;;;;;;;;;;;;;;;;;5064899;28;19917;-81
2022/07/23 22:03:20;;;;;;;;;;;;;;;;;;5072060;28;19928;-80
2022/07/23 22:05:45;;;;;;;;;;;;;;;;;;5093911;28;19921;-81
2022/07/23 22:08:10;;;;;;;;;;;;;;;;;;5080187;28;19923;-81
2022/07/23 22:10:35;;;;;;;;;;;;;;;;;;5080059;28;19901;-80
2022/07/23 22:13:00;;;;;;;;;;;;;;;;;;5091539;28;19913;-79
2022/07/23 22:15:26;;;;;;;;;;;;;;;;;;5066395;28;19913;-80
2022/07/23 22:17:51;;;;;;;;;;;;;;;;;;5070956;28;19920;-80
2022/07/23 22:20:16;;;;;;;;;;;;;;;;;;5069727;28;19917;-79
2022/07/23 22:22:43;;;;;;;;;;;;;;;;;;5066817;28;19913;-81
2022/07/23 22:25:08;;;;;;;;;;;;;;;;;;5067304;28;19948;-80
2022/07/23 22:27:34;;;;;;;;;;;;;;;;;;5065567;28;19917;-81
2022/07/23 22:29:59;;;;;;;;;;;;;;;;;;5064419;28;19912;-80
2022/07/23 22:32:24;;;;;;;;;;;;;;;;;;5065595;28;20003;-80
2022/07/23 22:34:49;;;;;;;;;;;;;;;;;;5065137;28;19913;-80
2022/07/23 22:37:14;;;;;;;;;;;;;;;;;;5065180;28;19966;-81
2022/07/23 22:39:39;;;;;;;;;;;;;;;;;;5065499;28;19917;-82
2022/07/23 22:42:05;;;;;;;;;;;;;;;;;;5066911;28;19920;-81
2022/07/23 22:44:30;;;;;;;;;;;;;;;;;;5068766;28;19913;-82
2022/07/23 22:46:55;;;;;;;;;;;;;;;;;;5063842;28;19913;-82
2022/07/23 22:49:20;;;;;;;;;;;;;;;;;;5056789;28;19913;-71
2022/07/23 22:51:46;;;;;;;;;;;;;;;;;;5055077;28;20000;-71
2022/07/23 22:54:11;;;;;;;;;;;;;;;;;;5056799;28;19919;-71
2022/07/23 22:56:36;;;;;;;;;;;;;;;;;;5056394;28;20362;-70
2022/07/23 22:59:03;;;;;;;;;;;;;;;;;;5056352;28;19920;-71
2022/07/23 23:01:28;;;;;;;;;;;;;;;;;;5071576;28;19924;-71
2022/07/23 23:03:53;;;;;;;;;;;;;;;;;;5056339;28;19919;-70
2022/07/23 23:06:18;;;;;;;;;;;;;;;;;;5056071;28;19966;-72
2022/07/23 23:08:43;;;;;;;;;;;;;;;;;;5055727;28;19966;-72
2022/07/23 23:11:09;;;;;;;;;;;;;;;;;;5055653;28;19962;-71
2022/07/23 23:13:34;;;;;;;;;;;;;;;;;;5070989;28;19928;-72
2022/07/23 23:15:59;;;;;;;;;;;;;;;;;;5055874;28;20288;-72
2022/07/23 23:18:25;;;;;;;;;;;;;;;;;;5055488;28;19913;-72
2022/07/23 23:20:50;;;;;;;;;;;;;;;;;;5054043;28;19917;-72
2022/07/23 23:23:15;;;;;;;;;;;;;;;;;;5055435;28;19913;-71
2022/07/23 23:25:40;;;;;;;;;;;;;;;;;;5055632;28;20007;-71
2022/07/23 23:28:05;;;;;;;;;;;;;;;;;;5055383;28;19917;-72
2022/07/23 23:30:30;;;;;;;;;;;;;;;;;;5055185;28;19955;-71
2022/07/23 23:32:56;;;;;;;;;;;;;;;;;;5054040;28;19913;-71
2022/07/23 23:35:21;;;;;;;;;;;;;;;;;;5055165;28;20362;-71
2022/07/23 23:37:46;;;;;;;;;;;;;;;;;;5072444;28;19956;-81
2022/07/23 23:40:14;;;;;;;;;;;;;;;;;;5063421;28;19917;-80
2022/07/23 23:42:39;;;;;;;;;;;;;;;;;;5065205;28;19913;-81
2022/07/23 23:45:06;;;;;;;;;;;;;;;;;;5080702;28;20066;-82
2022/07/23 23:47:31;;;;;;;;;;;;;;;;;;5063057;28;20354;-81
2022/07/23 23:49:56;;;;;;;;;;;;;;;;;;5067421;28;19913;-82
2022/07/23 23:52:22;;;;;;;;;;;;;;;;;;5068827;28;19913;-82
2022/07/23 23:54:48;;;;;;;;;;;;;;;;;;5067662;28;19913;-82
2022/07/23 23:57:13;;;;;;;;;;;;;;;;;;5066090;28;19913;-81
2022/07/23 23:59:38;;;;;;;;;;;;;;;;;;5064638;28;19917;-81
